Archival Weather

Eureka

Eureka, Canada (CWEU)

Report from: Tuesday, May 21, 2024 1:00 AM CDT
Current time: Saturday, June 22, 2024 5:09 AM CDT

Current weather – Weather history – Daily summaries
Weather forecast

Temperature-6.0°C (21.2°F)
Wind chill-14.5°C (6.0°F)
Dew point-12.0°C (10.4°F)
Winds 17 kts (8.7 m/s, 19.6 mph) North (10°)
Wind gusts 23 kts (11.8 m/s, 26.5 mph)
Visibility15 mi. (24.1 km)
Clouds Ceiling: Broken clouds 3,100 ft. (945 m)
Altimeter30.26 in.Hg (1025 mB)
Relative humidity62 %
Density altitude-2,995 ft. (-913 m)
Sea-level pressure102.6 kPa (1026 mB, 30.30 in.Hg)
Flight conditions Visual Meteorological Conditions
Raw dataCWEU 210600Z 01017G23KT 15SM BKN031 M06/M12 A3026 RMK SC5 SLP260
An error has occurred. This application may no longer respond until reloaded. Reload 🗙